AQQ10 IFIS: Internet Flight Information System
logo dgac
Miércoles 24 de Julio del 2024
Buscar por aerodromo o helipuerto
Ingrese nombre de aeródromo, localidad o designador OACI:
METAR del 23-07-2024 a las 22:00 UTC
Para mayor información visite www.meteochile.gob.cl
METAR SCRG 232200Z 03002KT 7000 NSC 10/06 Q1023
Viento: dirección 030 grados, velocidad 2 nudos
Visibilidad: 7000 metros
Sin nubes bajo los 5000 pies o bajo del MSA (Mínimo de Seguridad del Aeródromo)
Temperatura: 10 °C
Rocío: 6 °C
Humedad_relativa: 76%
Presión: 1023 hPa
METAR del 23-07-2024 a las 21:00 UTC
Para mayor información visite www.meteochile.gob.cl
METAR SCRG 232100Z 34001KT 7000 NSC 12/06 Q1023
Viento: dirección 340 grados, velocidad 1 nudos
Visibilidad: 7000 metros
Sin nubes bajo los 5000 pies o bajo del MSA (Mínimo de Seguridad del Aeródromo)
Temperatura: 12 °C
Rocío: 6 °C
Humedad_relativa: 67%
Presión: 1023 hPa
METAR del 23-07-2024 a las 20:00 UTC
Para mayor información visite www.meteochile.gob.cl
METAR SCRG 232000Z 20002KT 6000 NSC 12/07 Q1022
Viento: dirección 200 grados, velocidad 2 nudos
Visibilidad: 6000 metros
Sin nubes bajo los 5000 pies o bajo del MSA (Mínimo de Seguridad del Aeródromo)
Temperatura: 12 °C
Rocío: 7 °C
Humedad_relativa: 71%
Presión: 1022 hPa
METAR del 23-07-2024 a las 19:00 UTC
Para mayor información visite www.meteochile.gob.cl
METAR SCRG 231900Z 26001KT 5000 HZ FEW015 BKN200 11/08 Q1023
Viento: dirección 260 grados, velocidad 1 nudos
Visibilidad: 5000 metros
Bruma
Nubes: Escasa nubosidad a 1500 pies sobre el nivel del aeródromo
Nubes: Nublado a 20000 pies sobre el nivel del aeródromo
Temperatura: 11 °C
Rocío: 8 °C
Humedad_relativa: 82%
Presión: 1023 hPa
SPECI del 23-07-2024 a las 18:11 UTC
Para mayor información visite www.meteochile.gob.cl
SPECI SCRG 231811Z 29002KT 4000 HZ SCT015 BKN200 10/08 Q1023
Viento: dirección 290 grados, velocidad 2 nudos
Visibilidad: 4000 metros
Bruma
Nubes: Nubosidad parcial a 1500 pies sobre el nivel del aeródromo
Nubes: Nublado a 20000 pies sobre el nivel del aeródromo
Temperatura: 10 °C
Rocío: 8 °C
Humedad_relativa: 87%
Presión: 1023 hPa
METAR del 23-07-2024 a las 18:00 UTC
Para mayor información visite www.meteochile.gob.cl
METAR SCRG 231800Z 32001KT 2000 BR BKN008 BKN015 09/09 Q1023
Viento: dirección 320 grados, velocidad 1 nudos
Visibilidad: 2000 metros
Neblina
Nubes: Nublado a 800 pies sobre el nivel del aeródromo
Nubes: Nublado a 1500 pies sobre el nivel del aeródromo
Temperatura: 9 °C
Rocío: 9 °C
Humedad_relativa: 100%
Presión: 1023 hPa
METAR del 23-07-2024 a las 17:00 UTC
Para mayor información visite www.meteochile.gob.cl
METAR SCRG 231700Z 00000KT 1600 BR BKN005 OVC008 08/08 Q1024
Visibilidad: 1600 metros
Neblina
Nubes: Nublado a 500 pies sobre el nivel del aeródromo
Nubes: Cubierto a 800 pies sobre el nivel del aeródromo
Temperatura: 8 °C
Rocío: 8 °C
Humedad_relativa: 100%
Presión: 1024 hPa
SPECI del 23-07-2024 a las 16:39 UTC
Para mayor información visite www.meteochile.gob.cl
SPECI SCRG 231639Z 02002KT 1600 BR OVC005 07/07 Q1024
Viento: dirección 020 grados, velocidad 2 nudos
Visibilidad: 1600 metros
Neblina
Nubes: Cubierto a 500 pies sobre el nivel del aeródromo
Temperatura: 7 °C
Rocío: 7 °C
Humedad_relativa: 100%
Presión: 1024 hPa
METAR del 23-07-2024 a las 16:00 UTC
Para mayor información visite www.meteochile.gob.cl
METAR SCRG 231600Z 32001KT 0700 -DZ FG OVC003 07/07 Q1024
Viento: dirección 320 grados, velocidad 1 nudos
Visibilidad: 700 metros
Débil LLovizna
Niebla
Nubes: Cubierto a 300 pies sobre el nivel del aeródromo
Temperatura: 7 °C
Rocío: 7 °C
Humedad_relativa: 100%
Presión: 1024 hPa
METAR del 23-07-2024 a las 15:00 UTC
Para mayor información visite www.meteochile.gob.cl
METAR SCRG 231500Z 02002KT 0500 DZ FG OVC003 06/06 Q1023
Viento: dirección 020 grados, velocidad 2 nudos
Visibilidad: 500 metros
LLovizna
Niebla
Nubes: Cubierto a 300 pies sobre el nivel del aeródromo
Temperatura: 6 °C
Rocío: 6 °C
Humedad_relativa: 100%
Presión: 1023 hPa